createdAt,value
2022-11-21T00:01:20.940Z,72.76
2022-11-21T00:03:54.875Z,72.87
2022-11-21T00:06:28.754Z,73.00
2022-11-21T00:09:06.243Z,72.91
2022-11-21T00:11:37.107Z,72.96
2022-11-21T00:14:05.950Z,73.04
2022-11-21T00:16:38.861Z,73.00
2022-11-21T00:19:10.025Z,73.12
2022-11-21T00:21:39.854Z,72.95
2022-11-21T00:24:13.859Z,73.00
2022-11-21T00:26:50.435Z,72.99
2022-11-21T00:29:27.640Z,72.96
2022-11-21T00:31:56.555Z,73.14
2022-11-21T00:34:25.981Z,73.03
2022-11-21T00:36:54.982Z,73.26
2022-11-21T00:39:25.179Z,73.33
2022-11-21T00:41:56.033Z,73.46
2022-11-21T00:44:24.821Z,73.46
2022-11-21T00:46:53.768Z,73.27
2022-11-21T00:49:24.678Z,73.41
2022-11-21T00:51:54.532Z,73.28
2022-11-21T00:54:29.058Z,73.26
2022-11-21T00:56:57.819Z,73.23
2022-11-21T00:59:27.569Z,73.24
2022-11-21T01:01:58.183Z,73.22
2022-11-21T01:04:37.543Z,73.26
2022-11-21T01:07:08.672Z,73.43
2022-11-21T01:09:37.172Z,73.63
2022-11-21T01:12:12.936Z,73.47
2022-11-21T01:14:51.419Z,73.52
2022-11-21T01:17:20.498Z,73.47
2022-11-21T01:19:49.468Z,73.30
2022-11-21T01:22:20.599Z,73.39
2022-11-21T01:24:55.072Z,73.43
2022-11-21T01:27:24.288Z,73.24
2022-11-21T01:29:55.826Z,73.21
2022-11-21T01:32:28.252Z,73.14
2022-11-21T01:35:00.678Z,73.32
2022-11-21T01:37:29.906Z,73.38
2022-11-21T01:40:02.760Z,73.36
2022-11-21T01:42:49.572Z,73.39
2022-11-21T01:46:02.353Z,73.49
2022-11-21T01:48:36.339Z,73.46
2022-11-21T01:51:11.289Z,73.37
2022-11-21T01:53:46.493Z,73.21
2022-11-21T01:56:16.594Z,73.23
2022-11-21T01:58:54.211Z,73.11
2022-11-21T02:01:23.503Z,73.00
2022-11-21T02:03:56.183Z,72.99
2022-11-21T02:06:27.622Z,73.22
2022-11-21T02:08:57.941Z,73.03
2022-11-21T02:11:32.111Z,72.76
2022-11-21T02:14:07.295Z,72.63
2022-11-21T02:16:53.592Z,72.52
2022-11-21T02:19:38.554Z,72.26
2022-11-21T02:22:14.968Z,72.22
2022-11-21T02:24:51.110Z,72.23
2022-11-21T02:27:20.212Z,72.21
2022-11-21T02:29:51.993Z,72.23
2022-11-21T02:32:34.168Z,72.34
2022-11-21T02:35:03.480Z,72.55
2022-11-21T02:37:50.288Z,72.47
2022-11-21T02:40:25.532Z,72.39
2022-11-21T02:43:06.172Z,72.42
2022-11-21T02:45:42.657Z,72.36
2022-11-21T02:48:14.949Z,72.73
2022-11-21T02:50:52.817Z,72.84
2022-11-21T02:53:21.620Z,72.93
2022-11-21T02:55:50.050Z,73.16
2022-11-21T02:58:26.773Z,72.76
2022-11-21T03:00:55.674Z,72.56
2022-11-21T03:03:28.349Z,72.33
2022-11-21T03:05:57.452Z,72.57
2022-11-21T03:08:39.790Z,72.62
2022-11-21T03:11:09.665Z,72.57
2022-11-21T03:13:53.109Z,72.61
2022-11-21T03:16:21.690Z,72.37
2022-11-21T03:18:53.694Z,72.73
2022-11-21T03:21:22.504Z,72.67
2022-11-21T03:23:54.608Z,72.36
2022-11-21T03:26:26.319Z,72.23
2022-11-21T03:29:01.508Z,72.29
2022-11-21T03:31:30.149Z,72.32
2022-11-21T03:34:13.294Z,72.36
2022-11-21T03:36:44.371Z,72.76
2022-11-21T03:39:14.620Z,72.76
2022-11-21T03:41:43.447Z,72.76
2022-11-21T03:44:12.889Z,72.63
2022-11-21T03:46:48.833Z,72.59
2022-11-21T03:49:18.964Z,72.52
2022-11-21T03:54:42.913Z,72.51
2022-11-21T03:57:12.391Z,72.54
2022-11-21T03:59:43.065Z,72.39
2022-11-21T04:02:19.815Z,72.38
2022-11-21T04:04:51.547Z,72.38
2022-11-21T04:07:23.159Z,72.43
2022-11-21T04:09:52.039Z,72.39
2022-11-21T04:12:20.868Z,72.42
2022-11-21T04:14:49.955Z,72.26
2022-11-21T04:17:31.441Z,72.42
2022-11-21T04:20:06.392Z,72.87
2022-11-21T04:22:38.535Z,73.08
2022-11-21T04:25:09.573Z,73.04
2022-11-21T04:27:42.076Z,73.37
2022-11-21T04:30:14.534Z,73.37
2022-11-21T04:32:43.712Z,73.31
2022-11-21T04:35:13.213Z,72.87
2022-11-21T04:37:45.599Z,72.70
2022-11-21T04:40:16.746Z,72.48
2022-11-21T04:42:52.823Z,72.63
2022-11-21T04:45:21.626Z,72.40
2022-11-21T04:48:14.267Z,72.44
2022-11-21T04:50:45.884Z,72.48
2022-11-21T04:53:21.402Z,72.72
2022-11-21T04:55:50.169Z,72.84
2022-11-21T04:58:20.845Z,72.97
2022-11-21T05:00:50.669Z,72.86
2022-11-21T05:03:20.733Z,72.96
2022-11-21T05:05:52.563Z,73.07
2022-11-21T05:08:21.892Z,73.20
2022-11-21T05:11:08.874Z,72.97
2022-11-21T05:13:37.680Z,72.99
2022-11-21T05:16:06.706Z,73.28
2022-11-21T05:18:38.710Z,73.37
2022-11-21T05:21:12.222Z,73.65
2022-11-21T05:23:49.241Z,73.53
2022-11-21T05:26:18.966Z,72.98
2022-11-21T05:28:49.992Z,72.67
2022-11-21T05:31:18.683Z,72.82
2022-11-21T05:33:49.924Z,73.35
2022-11-21T05:36:22.781Z,73.50
2022-11-21T05:38:57.911Z,73.50
2022-11-21T05:41:27.348Z,73.41
2022-11-21T05:44:00.337Z,73.60
2022-11-21T05:46:49.607Z,73.40
2022-11-21T05:49:18.214Z,73.46
2022-11-21T05:51:49.443Z,73.42
2022-11-21T05:54:20.259Z,73.32
2022-11-21T05:56:51.372Z,72.97
2022-11-21T05:59:20.524Z,73.14
2022-11-21T06:02:08.437Z,73.37
2022-11-21T06:04:37.046Z,73.27
2022-11-21T06:07:07.367Z,73.08
2022-11-21T06:09:37.521Z,73.15
2022-11-21T06:12:06.481Z,73.25
2022-11-21T06:14:38.628Z,73.06
2022-11-21T06:17:07.132Z,73.07
2022-11-21T06:19:37.155Z,73.09
2022-11-21T06:22:05.619Z,72.99
2022-11-21T06:24:39.025Z,73.19
2022-11-21T06:27:07.607Z,73.16
2022-11-21T06:29:41.859Z,73.14
2022-11-21T06:32:10.614Z,73.14
2022-11-21T06:34:44.099Z,73.22
2022-11-21T06:37:19.677Z,73.28
2022-11-21T06:39:50.568Z,73.48
2022-11-21T06:42:19.615Z,73.32
2022-11-21T06:44:51.150Z,73.76
2022-11-21T06:47:20.162Z,73.66
2022-11-21T06:49:48.795Z,73.80
2022-11-21T06:52:18.790Z,73.95
2022-11-21T06:54:48.370Z,73.89
2022-11-21T06:57:17.214Z,73.84
2022-11-21T06:59:48.810Z,73.78
2022-11-21T07:02:20.882Z,73.88
2022-11-21T07:04:50.103Z,73.73
2022-11-21T07:07:22.145Z,73.98
2022-11-21T07:09:51.332Z,74.14
2022-11-21T07:12:42.561Z,74.02
2022-11-21T07:15:18.401Z,73.89
2022-11-21T07:17:47.075Z,74.02
2022-11-21T07:20:16.474Z,74.03
2022-11-21T07:22:48.121Z,73.95
2022-11-21T07:25:16.814Z,73.97
2022-11-21T07:27:45.418Z,73.89
2022-11-21T07:30:19.307Z,73.85
2022-11-21T07:32:49.281Z,73.88
2022-11-21T07:35:18.313Z,73.91
2022-11-21T07:37:47.298Z,73.79
2022-11-21T07:40:20.317Z,73.83
2022-11-21T07:42:49.583Z,73.81
2022-11-21T07:45:28.418Z,73.77
2022-11-21T07:48:03.617Z,73.77
2022-11-21T07:50:32.450Z,73.89
2022-11-21T07:53:08.178Z,74.18
2022-11-21T07:55:41.026Z,74.05
2022-11-21T07:58:15.540Z,74.24
2022-11-21T08:00:49.438Z,74.11
2022-11-21T08:03:20.303Z,74.16
2022-11-21T08:05:52.113Z,74.28
2022-11-21T08:08:24.483Z,74.14
2022-11-21T08:11:04.662Z,74.23
2022-11-21T08:13:36.536Z,74.32
2022-11-21T08:16:05.964Z,74.32
2022-11-21T08:18:37.923Z,74.77
2022-11-21T08:21:06.578Z,74.89
2022-11-21T08:23:37.997Z,74.96
2022-11-21T08:26:11.270Z,74.99
2022-11-21T08:28:45.238Z,74.84
2022-11-21T08:31:15.618Z,74.71
2022-11-21T08:33:44.141Z,74.45
2022-11-21T08:36:14.034Z,74.52
2022-11-21T08:38:45.884Z,74.38
2022-11-21T08:41:35.441Z,74.55
2022-11-21T08:44:13.644Z,74.51
2022-11-21T08:46:50.217Z,74.57
2022-11-21T08:49:18.759Z,74.52
2022-11-21T08:51:52.155Z,74.48
2022-11-21T08:54:23.256Z,74.64
2022-11-21T08:56:53.168Z,74.59
2022-11-21T08:59:23.730Z,74.82
2022-11-21T09:01:54.579Z,74.81
2022-11-21T09:04:30.127Z,74.76
2022-11-21T09:06:59.378Z,74.84
2022-11-21T09:09:29.590Z,74.69
2022-11-21T09:12:02.709Z,74.70
2022-11-21T09:14:50.048Z,74.60
2022-11-21T09:17:37.787Z,74.66
2022-11-21T09:20:08.878Z,74.64
2022-11-21T09:22:40.047Z,74.91
2022-11-21T09:25:09.729Z,74.95
2022-11-21T09:27:40.717Z,75.10
2022-11-21T09:30:12.149Z,75.05
2022-11-21T09:32:41.923Z,75.11
2022-11-21T09:35:13.358Z,75.54
2022-11-21T09:37:43.266Z,76.02
2022-11-21T09:40:16.221Z,76.22
2022-11-21T09:43:22.822Z,76.21
2022-11-21T09:45:58.390Z,75.97
2022-11-21T09:48:31.482Z,75.85
2022-11-21T09:51:09.346Z,75.57
2022-11-21T09:53:50.211Z,75.34
2022-11-21T09:56:20.903Z,75.09
2022-11-21T09:59:04.021Z,74.82
2022-11-21T10:01:48.035Z,74.56
2022-11-21T10:04:23.201Z,74.36
2022-11-21T10:07:05.977Z,74.43
2022-11-21T10:09:48.670Z,74.13
2022-11-21T10:12:37.352Z,73.62
2022-11-21T10:15:24.014Z,73.58
2022-11-21T10:18:03.966Z,73.01
2022-11-21T10:20:49.464Z,73.28
2022-11-21T10:23:39.560Z,73.20
2022-11-21T10:26:17.056Z,73.02
2022-11-21T10:28:55.165Z,72.83
2022-11-21T10:31:49.032Z,72.69
2022-11-21T10:34:22.330Z,72.40
2022-11-21T10:36:57.887Z,72.50
2022-11-21T10:39:35.679Z,71.90
2022-11-21T10:42:12.567Z,72.18
2022-11-21T10:45:01.014Z,72.56
2022-11-21T10:47:37.196Z,72.20
2022-11-21T10:50:40.257Z,72.23
2022-11-21T10:53:43.175Z,72.19
2022-11-21T10:56:18.256Z,72.04
2022-11-21T10:58:48.932Z,72.06
2022-11-21T11:01:23.017Z,72.11
2022-11-21T11:04:29.043Z,72.01
2022-11-21T11:07:14.921Z,72.02
2022-11-21T11:09:47.077Z,71.91
2022-11-21T11:12:50.565Z,72.13
2022-11-21T11:15:24.566Z,72.43
2022-11-21T11:17:57.633Z,72.50
2022-11-21T11:20:43.262Z,72.54
2022-11-21T11:23:25.420Z,72.57
2022-11-21T11:25:57.251Z,72.53
2022-11-21T11:28:36.772Z,72.48
2022-11-21T11:31:05.541Z,72.39
2022-11-21T11:33:39.064Z,72.37
2022-11-21T11:36:14.889Z,72.23
2022-11-21T11:38:52.299Z,72.23
2022-11-21T11:42:05.769Z,72.17
2022-11-21T11:45:06.869Z,72.28
2022-11-21T11:47:50.449Z,72.39
2022-11-21T11:50:26.790Z,72.50
2022-11-21T11:53:06.309Z,72.48
2022-11-21T11:55:43.937Z,72.52
2022-11-21T11:58:23.847Z,72.48
2022-11-21T12:01:02.368Z,72.55
2022-11-21T12:03:47.106Z,72.50
2022-11-21T12:06:36.178Z,72.70
2022-11-21T12:09:21.804Z,72.58
2022-11-21T12:12:08.803Z,72.52
2022-11-21T12:15:11.448Z,72.56
2022-11-21T12:17:47.070Z,72.47
2022-11-21T12:20:23.061Z,72.50
2022-11-21T12:22:56.499Z,72.49
2022-11-21T12:25:31.511Z,72.45
2022-11-21T12:28:00.510Z,72.44
2022-11-21T12:31:00.100Z,72.42
2022-11-21T12:33:31.824Z,72.32
2022-11-21T12:36:18.659Z,72.41
2022-11-21T12:39:09.885Z,72.42
2022-11-21T12:42:10.140Z,72.38
2022-11-21T12:44:54.711Z,72.31
2022-11-21T12:48:03.413Z,72.41
2022-11-21T12:51:02.068Z,72.38
2022-11-21T12:53:59.309Z,72.36
2022-11-21T12:56:47.616Z,72.33
2022-11-21T12:59:19.430Z,72.23
2022-11-21T13:01:57.548Z,72.16
2022-11-21T13:04:31.334Z,72.21
2022-11-21T13:07:02.424Z,72.24
2022-11-21T13:09:37.541Z,72.30
2022-11-21T13:12:16.081Z,72.22
2022-11-21T13:14:53.894Z,72.12
2022-11-21T13:17:42.327Z,72.23
2022-11-21T13:20:25.464Z,72.28
2022-11-21T13:22:58.693Z,72.26
2022-11-21T13:25:47.685Z,72.17
2022-11-21T13:28:40.030Z,72.24
2022-11-21T13:31:46.344Z,72.27
2022-11-21T13:34:38.260Z,72.13
2022-11-21T13:37:10.927Z,72.18
2022-11-21T13:39:41.493Z,72.29
2022-11-21T13:42:35.341Z,72.35
2022-11-21T13:45:42.751Z,72.25
2022-11-21T13:48:26.683Z,72.19
2022-11-21T13:51:35.156Z,72.23
2022-11-21T13:54:22.247Z,72.23
2022-11-21T13:57:06.620Z,72.32
2022-11-21T13:59:51.570Z,72.33
2022-11-21T14:02:42.606Z,72.35
2022-11-21T14:05:50.371Z,72.29
2022-11-21T14:08:22.041Z,72.35
2022-11-21T14:10:52.305Z,72.39
2022-11-21T14:13:28.124Z,72.40
2022-11-21T14:16:13.643Z,72.35
2022-11-21T14:18:45.351Z,72.37
2022-11-21T14:21:25.688Z,72.49
2022-11-21T14:23:58.840Z,72.33
2022-11-21T14:26:44.476Z,72.49
2022-11-21T14:29:26.225Z,72.38
2022-11-21T14:31:55.635Z,72.39
2022-11-21T14:34:29.129Z,72.45
2022-11-21T14:37:04.737Z,72.48
2022-11-21T14:39:43.935Z,72.48
2022-11-21T14:42:18.268Z,72.35
2022-11-21T14:45:07.033Z,72.41
2022-11-21T14:47:47.800Z,72.60
2022-11-21T14:50:27.860Z,72.43
2022-11-21T14:52:59.079Z,72.40
2022-11-21T14:55:31.576Z,72.46
2022-11-21T14:58:03.976Z,72.52
2022-11-21T15:03:24.547Z,72.39
2022-11-21T15:06:07.480Z,72.36
2022-11-21T15:11:35.470Z,72.27
2022-11-21T15:14:19.827Z,72.42
2022-11-21T15:16:51.927Z,72.45
2022-11-21T15:19:23.496Z,72.44
2022-11-21T15:21:55.189Z,72.58
2022-11-21T15:24:37.102Z,72.46
2022-11-21T15:27:34.896Z,72.46
2022-11-21T15:30:18.901Z,72.50
2022-11-21T15:33:12.507Z,72.46
2022-11-21T15:35:47.883Z,72.36
2022-11-21T15:38:41.080Z,72.56
2022-11-21T15:41:34.181Z,72.44
2022-11-21T15:44:22.851Z,72.54
2022-11-21T15:46:53.075Z,72.54
2022-11-21T15:49:32.990Z,72.54
2022-11-21T15:52:10.689Z,72.55
2022-11-21T15:54:39.290Z,72.50
2022-11-21T15:57:09.196Z,72.50
2022-11-21T15:59:38.055Z,72.61
2022-11-21T16:02:09.312Z,72.72
2022-11-21T16:04:40.452Z,72.63
2022-11-21T16:07:09.365Z,72.57
2022-11-21T16:09:42.880Z,72.53
2022-11-21T16:12:11.736Z,72.62
2022-11-21T16:14:43.556Z,72.47
2022-11-21T16:17:12.550Z,72.64
2022-11-21T16:19:45.427Z,72.53
2022-11-21T16:22:16.163Z,72.72
2022-11-21T16:24:46.605Z,72.67
2022-11-21T16:27:15.626Z,72.53
2022-11-21T16:29:44.302Z,72.60
2022-11-21T16:32:16.273Z,72.68
2022-11-21T16:34:47.922Z,72.60
2022-11-21T16:37:18.896Z,72.62
2022-11-21T16:39:51.661Z,72.74
2022-11-21T16:42:21.226Z,72.80
2022-11-21T16:44:51.700Z,72.60
2022-11-21T16:47:20.745Z,72.72
2022-11-21T16:49:49.802Z,72.69
2022-11-21T16:52:19.095Z,72.79
2022-11-21T16:54:50.977Z,72.76
2022-11-21T16:57:21.680Z,72.67
2022-11-21T17:00:07.825Z,72.78
2022-11-21T17:02:42.283Z,72.76
2022-11-21T17:05:15.021Z,72.97
2022-11-21T17:07:48.437Z,72.93
2022-11-21T17:10:33.765Z,72.78
2022-11-21T17:13:22.010Z,72.88
2022-11-21T17:15:53.360Z,72.89
2022-11-21T17:18:22.458Z,72.80
2022-11-21T17:20:56.771Z,72.82
2022-11-21T17:23:25.635Z,72.96
2022-11-21T17:25:56.541Z,73.02
2022-11-21T17:28:25.179Z,72.89
2022-11-21T17:30:54.975Z,73.06
2022-11-21T17:33:25.252Z,72.93
2022-11-21T17:35:54.305Z,72.92
2022-11-21T17:38:23.075Z,73.01
2022-11-21T17:41:01.478Z,73.07
2022-11-21T17:43:30.882Z,73.14
2022-11-21T17:46:09.341Z,73.15
2022-11-21T17:48:39.933Z,73.08
2022-11-21T17:51:12.537Z,73.14
2022-11-21T17:53:43.768Z,73.17
2022-11-21T17:56:14.524Z,73.15
2022-11-21T17:58:47.884Z,73.16
2022-11-21T18:01:19.659Z,73.15
2022-11-21T18:03:53.846Z,73.12
2022-11-21T18:06:32.916Z,73.15
2022-11-21T18:09:05.075Z,73.23
2022-11-21T18:11:40.578Z,73.21
2022-11-21T18:14:10.845Z,73.28
2022-11-21T18:16:53.850Z,73.34
2022-11-21T18:19:24.628Z,73.03
2022-11-21T18:21:53.264Z,73.39
2022-11-21T18:24:22.354Z,73.31
2022-11-21T18:26:51.074Z,73.30
2022-11-21T18:29:36.207Z,73.32
2022-11-21T18:32:06.816Z,73.31
2022-11-21T18:34:37.107Z,73.33
2022-11-21T18:37:06.024Z,73.49
2022-11-21T18:39:37.446Z,73.34
2022-11-21T18:42:06.126Z,73.43
2022-11-21T18:44:35.338Z,73.47
2022-11-21T18:47:19.395Z,73.52
2022-11-21T18:49:48.883Z,73.44
2022-11-21T18:52:17.664Z,73.42
2022-11-21T18:54:48.826Z,73.48
2022-11-21T19:00:06.772Z,73.40
2022-11-21T19:02:37.100Z,73.41
2022-11-21T19:05:07.315Z,73.33
2022-11-21T19:07:36.718Z,73.55
2022-11-21T19:10:35.706Z,73.50
2022-11-21T19:12:58.465Z,73.57
2022-11-21T19:15:27.541Z,73.58
2022-11-21T19:17:56.357Z,73.58
2022-11-21T19:20:24.871Z,73.66
2022-11-21T19:22:58.557Z,73.63
2022-11-21T19:25:31.201Z,73.51
2022-11-21T19:28:00.861Z,73.63
2022-11-21T19:30:29.615Z,73.68
2022-11-21T19:32:58.822Z,73.72
2022-11-21T19:35:27.438Z,73.60
2022-11-21T19:37:59.579Z,73.54
2022-11-21T19:40:48.553Z,73.63
2022-11-21T19:43:17.625Z,73.67
2022-11-21T19:45:47.947Z,73.73
2022-11-21T19:48:17.767Z,73.55
2022-11-21T19:50:58.423Z,73.82
2022-11-21T19:53:28.601Z,73.69
2022-11-21T19:55:57.788Z,73.79
2022-11-21T19:58:26.924Z,73.70
2022-11-21T20:01:03.941Z,73.69
2022-11-21T20:03:32.848Z,73.77
2022-11-21T20:06:03.851Z,73.72
2022-11-21T20:08:33.122Z,73.73
2022-11-21T20:11:10.545Z,73.69
2022-11-21T20:13:41.852Z,73.81
2022-11-21T20:16:20.384Z,73.86
2022-11-21T20:18:50.157Z,73.84
2022-11-21T20:21:21.631Z,73.87
2022-11-21T20:23:50.514Z,73.88
2022-11-21T20:26:21.121Z,73.84
2022-11-21T20:28:49.821Z,73.93
2022-11-21T20:31:20.890Z,73.89
2022-11-21T20:33:51.479Z,73.94
2022-11-21T20:36:22.564Z,73.90
2022-11-21T20:38:53.511Z,73.87
2022-11-21T20:41:23.997Z,73.90
2022-11-21T20:46:50.034Z,73.95
2022-11-21T20:49:18.880Z,73.94
2022-11-21T20:54:37.574Z,73.88
2022-11-21T20:57:10.396Z,73.95
2022-11-21T20:59:39.211Z,73.96
2022-11-21T21:02:11.263Z,73.92
2022-11-21T21:04:40.070Z,73.97
2022-11-21T21:07:08.488Z,74.06
2022-11-21T21:09:36.768Z,73.87
2022-11-21T21:12:05.908Z,74.00
2022-11-21T21:14:37.019Z,73.97
2022-11-21T21:17:05.708Z,74.02
2022-11-21T21:19:36.548Z,74.06
2022-11-21T21:22:05.143Z,74.00
2022-11-21T21:24:36.663Z,74.09
2022-11-21T21:27:05.013Z,74.04
2022-11-21T21:29:34.424Z,74.04
2022-11-21T21:32:02.900Z,74.06
2022-11-21T21:34:32.534Z,73.91
2022-11-21T21:37:04.193Z,74.12
2022-11-21T21:39:32.840Z,74.17
2022-11-21T21:42:02.186Z,74.12
2022-11-21T21:44:33.518Z,74.10
2022-11-21T21:47:02.386Z,74.16
2022-11-21T21:49:30.993Z,74.11
2022-11-21T21:51:59.400Z,74.12
2022-11-21T21:54:29.375Z,74.17
2022-11-21T21:56:58.329Z,73.99
2022-11-21T21:59:26.706Z,74.15
2022-11-21T22:01:55.320Z,74.05
2022-11-21T22:04:24.084Z,74.19
2022-11-21T22:06:52.942Z,74.13
2022-11-21T22:09:22.051Z,74.18
2022-11-21T22:11:50.636Z,74.25
2022-11-21T22:14:19.001Z,74.15
2022-11-21T22:16:51.596Z,74.27
2022-11-21T22:19:21.184Z,74.29
2022-11-21T22:21:52.409Z,74.41
2022-11-21T22:24:26.403Z,74.25
2022-11-21T22:26:58.442Z,74.37
2022-11-21T22:29:26.915Z,74.28
2022-11-21T22:31:56.268Z,74.37
2022-11-21T22:34:26.034Z,74.34
2022-11-21T22:36:54.282Z,74.32
2022-11-21T22:39:22.770Z,74.40
2022-11-21T22:41:53.628Z,74.43
2022-11-21T22:44:25.768Z,74.35
2022-11-21T22:46:54.574Z,74.45
2022-11-21T22:49:22.800Z,74.44
2022-11-21T22:51:53.929Z,74.38
2022-11-21T22:54:22.386Z,74.44
2022-11-21T22:56:51.021Z,74.38
2022-11-21T22:59:19.453Z,74.36
2022-11-21T23:01:49.044Z,74.26
2022-11-21T23:04:19.397Z,74.46
2022-11-21T23:06:49.079Z,74.38
2022-11-21T23:09:17.684Z,74.56
2022-11-21T23:11:46.353Z,74.64
2022-11-21T23:14:14.932Z,74.51
2022-11-21T23:16:49.136Z,74.57
2022-11-21T23:19:18.232Z,74.54
2022-11-21T23:21:46.516Z,74.45
2022-11-21T23:24:15.135Z,74.47
2022-11-21T23:26:44.499Z,74.51
2022-11-21T23:29:12.768Z,74.42
2022-11-21T23:31:41.350Z,74.38
2022-11-21T23:34:15.362Z,74.46
2022-11-21T23:36:44.370Z,74.49
2022-11-21T23:39:13.173Z,74.59
2022-11-21T23:41:44.601Z,74.51
2022-11-21T23:44:12.883Z,74.45
2022-11-21T23:46:41.185Z,74.55
2022-11-21T23:49:14.047Z,74.55
2022-11-21T23:51:43.186Z,74.55
2022-11-21T23:54:11.725Z,74.48
2022-11-21T23:56:40.199Z,74.50
2022-11-21T23:59:10.223Z,74.31
